This is the latest recevied weather packets stored in our database for station/object VK5FR. If no packets are shown the sender has not sent any weather packets the latest 10 day(s).
| Time | Temp. | Humidity | Pressure | Rain* | Wind** | Luminosity | Snow |
|---|---|---|---|---|---|---|---|
| 1777690049 | 17.78° C | 77% | 1006.8 hPa | 0 mm | - | - | - |
| 1777689747 | 18.33° C | 79% | 1006.7 hPa | 0 mm | - | - | - |
| 1777689445 | 18.33° C | 78% | 1006.9 hPa | 0 mm | - | - | - |
| 1777689142 | 18.33° C | 79% | 1007 hPa | 0 mm | - | - | - |
| 1777688840 | 18.33° C | 80% | 1007.3 hPa | 0 mm | - | - | - |
| 1777688536 | 18.33° C | 80% | 1007.4 hPa | 0 mm | - | - | - |
| 1777688233 | 18.33° C | 79% | 1007.2 hPa | 0 mm | - | - | - |
| 1777687931 | 18.33° C | 80% | 1007.5 hPa | 0 mm | - | - | - |
| 1777687628 | 18.33° C | 80% | 1007.2 hPa | 0 mm | - | - | - |
| 1777687325 | 17.78° C | 82% | 1007.3 hPa | 0 mm | - | - | - |
| 1777687023 | 18.33° C | 83% | 1007.3 hPa | 0 mm | - | - | - |
| 1777686718 | 18.33° C | 83% | 1007.3 hPa | 0 mm | - | - | - |
| 1777686416 | 18.33° C | 82% | 1007.5 hPa | 0 mm | - | - | - |
| 1777686113 | 18.89° C | 80% | 1007.4 hPa | 0 mm | - | - | - |
| 1777685809 | 19.44° C | 78% | 1007.4 hPa | 0 mm | - | - | - |
| 1777685504 | 20° C | 75% | 1007.2 hPa | 0 mm | - | - | - |
| 1777685202 | 21.11° C | 65% | 1006.7 hPa | 0 mm | - | - | - |
| 1777684900 | 21.11° C | 63% | 1006.7 hPa | 0 mm | - | - | - |
| 1777684597 | 21.11° C | 64% | 1006.8 hPa | 0 mm | - | - | - |
| 1777684292 | 21.11° C | 63% | 1006.7 hPa | 0 mm | - | - | - |
| 1777683990 | 21.11° C | 61% | 1006.6 hPa | 0 mm | - | - | - |
| 1777683686 | 21.11° C | 62% | 1006.7 hPa | 0 mm | - | - | - |
| 1777683384 | 21.11° C | 61% | 1006.8 hPa | 0 mm | - | - | - |
| 1777683082 | 21.11° C | 60% | 1006.9 hPa | 0 mm | - | - | - |
| 1777682777 | 20.56° C | 61% | 1007 hPa | 0 mm | - | - | - |
* Rain latest hour (hover to see other rain measurements)
** Current wind speed in m/s (hover to see current wind gust speed)